Time;durP1;ratioP1;P1;durP2;ratioP2;P2;SDS_P1;SDS_P2;PMS_P1;PMS_P2;Temp;Humidity;BMP_temperature;BMP_pressure;BME280_temperature;BME280_humidity;BME280_pressure;Samples;Min_cycle;Max_cycle;Signal;HPM_P1;HPM_P2
2021/04/13 00:00:28;;;;;;;0.90;0.57;;;;;;;;;;5090466;28;20440;-68
2021/04/13 00:02:55;;;;;;;0.80;0.60;;;;;;;;;;5091025;28;20394;-68
2021/04/13 00:05:28;;;;;;;0.70;0.50;;;;;;;;;;5092435;28;20785;-69
2021/04/13 00:07:55;;;;;;;1.97;0.97;;;;;;;;;;5091294;28;20419;-69
2021/04/13 00:10:23;;;;;;;0.70;0.43;;;;;;;;;;5087810;28;20421;-67
2021/04/13 00:12:49;;;;;;;0.70;0.53;;;;;;;;;;5086330;28;21176;-69
2021/04/13 00:15:17;;;;;;;0.80;0.70;;;;;;;;;;5088235;28;20467;-69
2021/04/13 00:17:44;;;;;;;0.70;0.50;;;;;;;;;;5090126;28;21058;-68
2021/04/13 00:20:21;;;;;;;0.70;0.50;;;;;;;;;;5094359;28;20785;-68
2021/04/13 00:22:47;;;;;;;0.70;0.50;;;;;;;;;;5076443;28;20439;-69
2021/04/13 00:25:21;;;;;;;1.07;0.70;;;;;;;;;;5078364;28;20414;-71
2021/04/13 00:27:48;;;;;;;0.70;0.40;;;;;;;;;;5079808;28;20426;-70
2021/04/13 00:30:17;;;;;;;0.80;0.60;;;;;;;;;;5102724;28;20803;-70
2021/04/13 00:32:46;;;;;;;0.70;0.40;;;;;;;;;;5079630;28;20445;-69
2021/04/13 00:35:28;;;;;;;1.57;1.47;;;;;;;;;;5101226;28;20568;-70
2021/04/13 00:38:12;;;;;;;1.03;0.60;;;;;;;;;;5076368;28;21092;-69
2021/04/13 00:40:38;;;;;;;0.80;0.53;;;;;;;;;;5095996;28;20419;-70
2021/04/13 00:43:05;;;;;;;1.17;1.07;;;;;;;;;;5101761;28;20421;-70
2021/04/13 00:45:33;;;;;;;0.70;0.50;;;;;;;;;;5103058;28;21077;-68
2021/04/13 00:48:00;;;;;;;0.80;0.70;;;;;;;;;;5100513;28;20413;-69
2021/04/13 00:50:26;;;;;;;0.70;0.50;;;;;;;;;;5102546;28;20427;-70
2021/04/13 00:52:54;;;;;;;0.80;0.70;;;;;;;;;;5098699;28;20419;-70
2021/04/13 00:55:22;;;;;;;0.73;0.53;;;;;;;;;;5087338;28;20446;-73
2021/04/13 00:57:55;;;;;;;0.80;0.70;;;;;;;;;;5106614;28;20411;-71
2021/04/13 01:00:23;;;;;;;1.20;0.90;;;;;;;;;;5101522;28;20442;-70
2021/04/13 01:02:49;;;;;;;0.80;0.70;;;;;;;;;;5100516;28;20428;-70
2021/04/13 01:05:19;;;;;;;0.70;0.50;;;;;;;;;;5098617;28;20764;-68
2021/04/13 01:07:47;;;;;;;0.80;0.60;;;;;;;;;;5097513;28;20422;-71
2021/04/13 01:10:16;;;;;;;0.70;0.63;;;;;;;;;;5107289;28;20440;-71
2021/04/13 01:12:44;;;;;;;0.70;0.40;;;;;;;;;;5099819;28;20426;-69
2021/04/13 01:15:12;;;;;;;0.70;0.50;;;;;;;;;;5090265;28;20453;-69
2021/04/13 01:17:39;;;;;;;0.90;0.90;;;;;;;;;;5086663;28;20429;-69
2021/04/13 01:20:09;;;;;;;0.70;0.60;;;;;;;;;;5089486;28;20496;-68
2021/04/13 01:25:21;;;;;;;0.70;0.50;;;;;;;;;;5084062;28;20426;-70
2021/04/13 01:27:53;;;;;;;0.80;0.70;;;;;;;;;;5092390;28;20411;-70
2021/04/13 01:30:20;;;;;;;0.80;0.70;;;;;;;;;;5091774;28;20435;-69
2021/04/13 01:32:46;;;;;;;2.07;0.83;;;;;;;;;;5085715;28;20411;-69
2021/04/13 01:35:14;;;;;;;0.80;0.60;;;;;;;;;;5088712;28;20449;-68
2021/04/13 01:37:53;;;;;;;0.90;0.60;;;;;;;;;;5092788;28;20413;-67
2021/04/13 01:40:25;;;;;;;0.70;0.50;;;;;;;;;;5087593;28;20416;-67
2021/04/13 01:42:52;;;;;;;0.80;0.70;;;;;;;;;;5094530;28;20818;-69
2021/04/13 01:45:26;;;;;;;0.80;0.50;;;;;;;;;;5095125;28;20443;-68
2021/04/13 01:47:53;;;;;;;0.90;0.50;;;;;;;;;;5094086;28;20424;-67
2021/04/13 01:50:21;;;;;;;0.70;0.60;;;;;;;;;;5095672;28;20443;-68
2021/04/13 01:52:49;;;;;;;0.80;0.60;;;;;;;;;;5095086;28;20441;-67
2021/04/13 01:55:26;;;;;;;1.10;0.70;;;;;;;;;;5076894;28;20451;-69
2021/04/13 01:57:56;;;;;;;1.10;0.60;;;;;;;;;;5094258;28;20503;-68
2021/04/13 02:00:24;;;;;;;0.97;0.97;;;;;;;;;;5093737;28;20434;-67
2021/04/13 02:03:00;;;;;;;1.13;1.03;;;;;;;;;;5091272;28;20404;-69
2021/04/13 02:05:30;;;;;;;0.70;0.50;;;;;;;;;;5081772;28;20474;-69
2021/04/13 02:08:03;;;;;;;0.97;0.73;;;;;;;;;;5084671;28;20936;-71
2021/04/13 02:10:34;;;;;;;0.70;0.50;;;;;;;;;;5062438;28;20445;-68
2021/04/13 02:13:11;;;;;;;1.50;0.90;;;;;;;;;;5090701;28;20511;-68
2021/04/13 02:15:43;;;;;;;0.70;0.40;;;;;;;;;;5091744;28;20455;-69
2021/04/13 02:18:13;;;;;;;0.80;0.67;;;;;;;;;;5091318;28;20513;-69
2021/04/13 02:20:42;;;;;;;0.70;0.50;;;;;;;;;;5090977;28;20413;-69
2021/04/13 02:23:09;;;;;;;0.80;0.63;;;;;;;;;;5091895;28;20425;-68
2021/04/13 02:25:36;;;;;;;0.80;0.53;;;;;;;;;;5091286;28;20436;-70
2021/04/13 02:28:06;;;;;;;0.70;0.40;;;;;;;;;;5072276;28;20419;-67
2021/04/13 02:30:34;;;;;;;0.70;0.50;;;;;;;;;;5082593;28;20425;-69
2021/04/13 02:33:01;;;;;;;0.70;0.50;;;;;;;;;;5086558;28;20765;-68
2021/04/13 02:35:29;;;;;;;0.70;0.47;;;;;;;;;;5085540;28;20994;-70
2021/04/13 02:37:57;;;;;;;0.83;0.50;;;;;;;;;;5079598;28;20435;-71
2021/04/13 02:40:26;;;;;;;1.43;0.60;;;;;;;;;;5090644;28;20430;-69
2021/04/13 02:42:54;;;;;;;0.70;0.40;;;;;;;;;;5090774;28;20398;-69
2021/04/13 02:45:25;;;;;;;0.70;0.50;;;;;;;;;;5090917;28;21023;-69
2021/04/13 02:47:55;;;;;;;0.80;0.50;;;;;;;;;;5090585;28;20452;-68
2021/04/13 02:50:22;;;;;;;0.70;0.50;;;;;;;;;;5090281;28;20435;-68
2021/04/13 02:52:50;;;;;;;0.80;0.70;;;;;;;;;;5090387;28;20914;-68
2021/04/13 02:55:32;;;;;;;0.70;0.50;;;;;;;;;;5090945;28;20480;-68
2021/04/13 02:58:00;;;;;;;0.70;0.40;;;;;;;;;;5090313;28;20834;-68
2021/04/13 03:02:10;;;;;;;0.70;0.47;;;;;;;;;;5090059;27;20561;-69
2021/04/13 03:04:46;;;;;;;0.70;0.50;;;;;;;;;;5090868;28;20425;-69
2021/04/13 03:07:13;;;;;;;0.70;0.60;;;;;;;;;;5088089;28;20436;-69
2021/04/13 03:09:40;;;;;;;0.70;0.50;;;;;;;;;;5087846;28;20410;-69
2021/04/13 03:12:07;;;;;;;4.33;1.23;;;;;;;;;;5087404;28;20456;-69
2021/04/13 03:14:39;;;;;;;0.70;0.40;;;;;;;;;;5087148;28;20433;-69
2021/04/13 03:17:20;;;;;;;0.70;0.50;;;;;;;;;;5087601;28;20403;-70
2021/04/13 03:19:50;;;;;;;0.70;0.50;;;;;;;;;;5067595;28;20489;-68
2021/04/13 03:22:17;;;;;;;0.80;0.63;;;;;;;;;;5083626;28;20414;-70
2021/04/13 03:24:44;;;;;;;0.80;0.57;;;;;;;;;;5088591;28;20408;-70
2021/04/13 03:27:12;;;;;;;1.07;0.97;;;;;;;;;;5095959;28;20465;-70
2021/04/13 03:29:43;;;;;;;0.70;0.50;;;;;;;;;;5087683;28;20423;-70
2021/04/13 03:32:10;;;;;;;0.80;0.50;;;;;;;;;;5076171;28;20413;-70
2021/04/13 03:34:39;;;;;;;0.70;0.50;;;;;;;;;;5071761;28;20416;-70
2021/04/13 03:37:06;;;;;;;0.70;0.50;;;;;;;;;;5069676;28;20490;-70
2021/04/13 03:39:33;;;;;;;0.70;0.50;;;;;;;;;;5089798;28;20754;-70
2021/04/13 03:42:00;;;;;;;0.70;0.50;;;;;;;;;;5095632;28;20476;-70
2021/04/13 03:44:26;;;;;;;0.70;0.43;;;;;;;;;;5094128;28;20405;-70
2021/04/13 03:46:53;;;;;;;0.70;0.50;;;;;;;;;;5087755;28;20405;-70
2021/04/13 03:49:39;;;;;;;0.90;0.53;;;;;;;;;;5086922;28;20461;-70
2021/04/13 03:52:09;;;;;;;1.43;1.33;;;;;;;;;;5085928;28;20437;-71
2021/04/13 03:54:36;;;;;;;1.33;0.70;;;;;;;;;;5086332;28;20555;-70
2021/04/13 03:57:03;;;;;;;0.70;0.50;;;;;;;;;;5084428;28;20402;-70
2021/04/13 03:59:32;;;;;;;0.70;0.40;;;;;;;;;;5066977;28;20412;-70
2021/04/13 04:01:58;;;;;;;0.80;0.70;;;;;;;;;;5077250;28;20460;-69
2021/04/13 04:04:31;;;;;;;0.80;0.60;;;;;;;;;;5087358;28;20929;-70
2021/04/13 04:07:06;;;;;;;10.43;1.63;;;;;;;;;;5086807;28;21074;-70
2021/04/13 04:09:32;;;;;;;0.87;0.60;;;;;;;;;;5086969;28;20782;-70
2021/04/13 04:11:59;;;;;;;1.33;0.63;;;;;;;;;;5081545;28;20396;-70
2021/04/13 04:14:26;;;;;;;0.70;0.50;;;;;;;;;;5070712;28;20491;-70
2021/04/13 04:17:02;;;;;;;2.93;0.63;;;;;;;;;;5053595;28;20403;-69
2021/04/13 04:19:29;;;;;;;0.90;0.73;;;;;;;;;;5053898;28;20468;-69
2021/04/13 04:22:03;;;;;;;7.43;2.60;;;;;;;;;;5052524;28;20552;-69
2021/04/13 04:24:29;;;;;;;0.80;0.77;;;;;;;;;;5053603;28;20421;-69
2021/04/13 04:26:57;;;;;;;0.77;0.57;;;;;;;;;;5054219;28;20772;-69
2021/04/13 04:29:29;;;;;;;0.73;0.53;;;;;;;;;;5072460;28;20490;-69
2021/04/13 04:31:55;;;;;;;1.27;0.80;;;;;;;;;;5061131;28;20426;-70
2021/04/13 04:34:21;;;;;;;0.70;0.57;;;;;;;;;;5063601;28;20406;-70
2021/04/13 04:36:47;;;;;;;1.90;0.63;;;;;;;;;;5062534;28;20512;-69
2021/04/13 04:39:32;;;;;;;0.70;0.50;;;;;;;;;;5063302;28;20922;-69
2021/04/13 04:42:08;;;;;;;0.70;0.57;;;;;;;;;;5063676;28;20468;-70
2021/04/13 04:44:34;;;;;;;0.70;0.40;;;;;;;;;;5063872;28;20438;-70
2021/04/13 04:47:00;;;;;;;0.70;0.60;;;;;;;;;;5069052;28;20987;-71
2021/04/13 04:49:37;;;;;;;0.70;0.53;;;;;;;;;;5074135;28;20418;-71
2021/04/13 04:52:03;;;;;;;0.70;0.50;;;;;;;;;;5065804;28;20407;-69
2021/04/13 04:54:28;;;;;;;0.70;0.50;;;;;;;;;;5057525;28;20418;-70
2021/04/13 04:56:54;;;;;;;0.70;0.50;;;;;;;;;;5051385;28;20427;-71
2021/04/13 04:59:20;;;;;;;1.77;0.60;;;;;;;;;;5072593;28;20442;-70
2021/04/13 05:01:47;;;;;;;0.97;0.70;;;;;;;;;;5056953;28;20497;-70
2021/04/13 05:04:13;;;;;;;0.80;0.60;;;;;;;;;;5062692;28;20879;-70
2021/04/13 05:06:39;;;;;;;1.43;0.90;;;;;;;;;;5075418;28;20503;-70
2021/04/13 05:09:05;;;;;;;1.57;0.93;;;;;;;;;;5072245;28;20416;-71
2021/04/13 05:11:31;;;;;;;0.80;0.70;;;;;;;;;;5073010;28;20464;-72
2021/04/13 05:13:57;;;;;;;1.23;0.93;;;;;;;;;;5071806;28;20419;-72
2021/04/13 05:16:23;;;;;;;0.73;0.53;;;;;;;;;;5068384;28;20569;-72
2021/04/13 05:18:49;;;;;;;1.93;0.67;;;;;;;;;;5064711;28;20447;-71
2021/04/13 05:21:15;;;;;;;9.20;3.63;;;;;;;;;;5061504;28;20527;-71
2021/04/13 05:23:41;;;;;;;0.80;0.60;;;;;;;;;;5060766;28;20398;-71
2021/04/13 05:26:09;;;;;;;1.00;0.70;;;;;;;;;;5061642;28;20496;-72
2021/04/13 05:28:35;;;;;;;0.70;0.40;;;;;;;;;;5059399;28;20423;-70
2021/04/13 05:31:01;;;;;;;0.70;0.60;;;;;;;;;;5061168;28;20438;-72
2021/04/13 05:33:27;;;;;;;0.80;0.60;;;;;;;;;;5061424;28;20398;-72
2021/04/13 05:35:53;;;;;;;1.57;1.47;;;;;;;;;;5056716;28;20411;-72
2021/04/13 05:38:26;;;;;;;0.83;0.60;;;;;;;;;;5060640;28;20451;-71
2021/04/13 05:40:53;;;;;;;1.17;1.00;;;;;;;;;;5067648;28;20980;-72
2021/04/13 05:43:19;;;;;;;0.83;0.70;;;;;;;;;;5061301;28;20754;-72
2021/04/13 05:45:47;;;;;;;1.00;0.83;;;;;;;;;;5061380;28;20399;-72
2021/04/13 05:48:13;;;;;;;0.70;0.57;;;;;;;;;;5059289;28;20415;-72
2021/04/13 05:50:40;;;;;;;0.87;0.70;;;;;;;;;;5059000;28;20498;-72
2021/04/13 05:53:07;;;;;;;1.63;0.87;;;;;;;;;;5060235;28;20417;-72
2021/04/13 05:55:33;;;;;;;1.00;0.60;;;;;;;;;;5065457;28;20428;-71
2021/04/13 05:58:01;;;;;;;1.00;0.80;;;;;;;;;;5069553;28;20875;-71
2021/04/13 06:00:28;;;;;;;0.70;0.50;;;;;;;;;;5050116;28;20494;-72
2021/04/13 06:02:54;;;;;;;0.70;0.60;;;;;;;;;;5058634;28;20507;-71
2021/04/13 06:05:27;;;;;;;0.80;0.60;;;;;;;;;;5061527;28;20417;-71
2021/04/13 06:07:54;;;;;;;1.10;0.60;;;;;;;;;;5060791;28;20857;-73
2021/04/13 06:10:20;;;;;;;1.87;1.17;;;;;;;;;;5059124;28;20427;-74
2021/04/13 06:12:50;;;;;;;0.80;0.50;;;;;;;;;;5063342;28;20560;-72
2021/04/13 06:15:18;;;;;;;0.80;0.50;;;;;;;;;;5065473;28;20449;-71
2021/04/13 06:17:44;;;;;;;0.73;0.53;;;;;;;;;;5061448;28;20435;-71
2021/04/13 06:20:10;;;;;;;0.87;0.70;;;;;;;;;;5053753;28;20466;-71
2021/04/13 06:22:36;;;;;;;0.70;0.50;;;;;;;;;;5049627;28;20422;-71
2021/04/13 06:25:02;;;;;;;1.10;0.83;;;;;;;;;;5058827;28;20805;-71
2021/04/13 06:27:28;;;;;;;0.90;0.50;;;;;;;;;;5076197;28;20997;-73
2021/04/13 06:29:54;;;;;;;1.43;0.60;;;;;;;;;;5074517;28;21042;-72
2021/04/13 06:32:20;;;;;;;1.10;0.77;;;;;;;;;;5070114;28;20403;-73
2021/04/13 06:34:45;;;;;;;0.90;0.63;;;;;;;;;;5069795;28;20928;-72
2021/04/13 06:37:12;;;;;;;4.50;0.73;;;;;;;;;;5068991;28;20417;-73
2021/04/13 06:39:39;;;;;;;1.10;0.70;;;;;;;;;;5053460;28;20895;-72
2021/04/13 06:42:06;;;;;;;1.10;0.93;;;;;;;;;;5055927;28;21014;-71
2021/04/13 06:44:35;;;;;;;0.80;0.50;;;;;;;;;;5055492;28;20471;-73
2021/04/13 06:47:01;;;;;;;1.00;0.80;;;;;;;;;;5055411;28;20428;-72
2021/04/13 06:49:42;;;;;;;9.70;1.53;;;;;;;;;;5069261;28;20426;-72
2021/04/13 06:52:29;;;;;;;0.80;0.60;;;;;;;;;;5055043;28;20453;-72
2021/04/13 06:55:14;;;;;;;0.80;0.60;;;;;;;;;;5054671;28;20475;-72
2021/04/13 06:57:46;;;;;;;0.70;0.50;;;;;;;;;;5046905;28;20782;-73
2021/04/13 07:00:32;;;;;;;2.03;1.20;;;;;;;;;;5048156;28;20477;-72
2021/04/13 07:03:15;;;;;;;1.87;1.60;;;;;;;;;;5063904;28;20470;-73
2021/04/13 07:05:48;;;;;;;0.97;0.77;;;;;;;;;;5069905;28;20680;-71
2021/04/13 07:08:21;;;;;;;0.80;0.63;;;;;;;;;;5067727;28;21104;-72
2021/04/13 07:10:53;;;;;;;1.20;1.10;;;;;;;;;;5067414;28;20611;-72
2021/04/13 07:13:22;;;;;;;0.80;0.60;;;;;;;;;;5067467;28;20421;-72
2021/04/13 07:16:06;;;;;;;1.00;0.80;;;;;;;;;;5060171;28;20430;-72
2021/04/13 07:18:38;;;;;;;0.70;0.60;;;;;;;;;;5058755;28;20496;-72
2021/04/13 07:21:09;;;;;;;0.70;0.50;;;;;;;;;;5056064;28;20466;-72
2021/04/13 07:23:39;;;;;;;0.70;0.40;;;;;;;;;;5058044;28;20439;-73
2021/04/13 07:26:31;;;;;;;0.80;0.70;;;;;;;;;;5075087;28;20544;-72
2021/04/13 07:29:16;;;;;;;0.87;0.50;;;;;;;;;;5055417;28;20452;-72
2021/04/13 07:31:52;;;;;;;0.73;0.57;;;;;;;;;;5057888;28;20425;-72
2021/04/13 07:34:18;;;;;;;0.80;0.70;;;;;;;;;;5066470;28;20888;-72
2021/04/13 07:36:46;;;;;;;0.70;0.50;;;;;;;;;;5084179;28;20397;-71
2021/04/13 07:39:13;;;;;;;1.00;0.90;;;;;;;;;;5060890;28;20428;-71
2021/04/13 07:41:54;;;;;;;0.70;0.50;;;;;;;;;;5067289;28;20550;-72
2021/04/13 07:44:24;;;;;;;1.50;1.40;;;;;;;;;;5069197;28;20405;-72
2021/04/13 07:47:09;;;;;;;1.57;0.60;;;;;;;;;;5067320;28;20411;-71
2021/04/13 07:49:41;;;;;;;0.70;0.40;;;;;;;;;;5060520;28;20717;-72
2021/04/13 07:52:25;;;;;;;0.90;0.73;;;;;;;;;;5058533;28;20464;-73
2021/04/13 07:54:58;;;;;;;0.70;0.40;;;;;;;;;;5065593;28;20418;-72
2021/04/13 07:57:27;;;;;;;0.70;0.50;;;;;;;;;;5062455;28;20414;-72
2021/04/13 07:59:53;;;;;;;0.70;0.50;;;;;;;;;;5075131;28;20437;-70
2021/04/13 08:02:19;;;;;;;0.80;0.60;;;;;;;;;;5065843;28;20414;-71
2021/04/13 08:04:48;;;;;;;0.80;0.70;;;;;;;;;;5063887;28;20858;-72
2021/04/13 08:07:24;;;;;;;0.90;0.70;;;;;;;;;;5070711;28;21069;-72
2021/04/13 08:10:08;;;;;;;0.97;0.60;;;;;;;;;;5060718;28;20635;-73
2021/04/13 08:12:36;;;;;;;0.80;0.50;;;;;;;;;;5062709;28;20456;-72
2021/04/13 08:15:04;;;;;;;0.80;0.60;;;;;;;;;;5059067;28;20403;-71
2021/04/13 08:17:32;;;;;;;0.70;0.50;;;;;;;;;;5051184;28;21242;-71
2021/04/13 08:19:58;;;;;;;0.80;0.60;;;;;;;;;;5070212;28;20855;-71
2021/04/13 08:22:24;;;;;;;3.47;0.97;;;;;;;;;;5070695;28;20419;-71
2021/04/13 08:24:52;;;;;;;1.33;1.10;;;;;;;;;;5065222;28;20487;-71
2021/04/13 08:27:21;;;;;;;0.80;0.80;;;;;;;;;;5070962;28;20427;-73
2021/04/13 08:29:50;;;;;;;0.90;0.67;;;;;;;;;;5067134;28;20426;-71
2021/04/13 08:35:09;;;;;;;2.40;0.50;;;;;;;;;;5072262;28;20403;-71
2021/04/13 08:37:50;;;;;;;0.97;0.87;;;;;;;;;;5058771;28;20912;-72
2021/04/13 08:40:35;;;;;;;1.20;1.10;;;;;;;;;;5075649;28;20485;-71
2021/04/13 08:43:15;;;;;;;1.20;0.90;;;;;;;;;;5073773;28;20780;-72
2021/04/13 08:45:49;;;;;;;1.20;1.10;;;;;;;;;;5074275;28;20468;-71
2021/04/13 08:48:24;;;;;;;1.77;0.93;;;;;;;;;;5074749;28;20373;-70
2021/04/13 08:51:06;;;;;;;4.27;1.07;;;;;;;;;;5074928;28;20428;-71
2021/04/13 08:53:36;;;;;;;0.80;0.60;;;;;;;;;;5073528;28;20834;-71
2021/04/13 08:56:11;;;;;;;1.20;1.07;;;;;;;;;;5072912;28;20420;-71
2021/04/13 08:58:43;;;;;;;1.23;0.83;;;;;;;;;;5072927;28;20775;-70
2021/04/13 09:01:29;;;;;;;0.77;0.50;;;;;;;;;;5074291;22;20870;-68
2021/04/13 09:03:55;;;;;;;1.50;0.77;;;;;;;;;;5027738;28;20411;-69
2021/04/13 09:06:27;;;;;;;0.70;0.40;;;;;;;;;;5035986;28;20457;-67
2021/04/13 09:09:11;;;;;;;5.90;1.13;;;;;;;;;;5025929;28;20525;-68
2021/04/13 09:11:54;;;;;;;0.77;0.50;;;;;;;;;;5018830;28;20861;-68
2021/04/13 09:14:26;;;;;;;0.90;0.70;;;;;;;;;;5015047;28;20411;-67
2021/04/13 09:17:01;;;;;;;0.83;0.57;;;;;;;;;;5017028;28;20404;-68
2021/04/13 09:19:31;;;;;;;0.90;0.77;;;;;;;;;;5010512;28;20924;-68
2021/04/13 09:22:02;;;;;;;6.20;0.97;;;;;;;;;;5013062;28;20466;-67
2021/04/13 09:24:38;;;;;;;1.00;0.60;;;;;;;;;;5013046;28;20413;-68
2021/04/13 09:27:16;;;;;;;2.70;1.60;;;;;;;;;;5017290;28;20793;-68
2021/04/13 09:29:50;;;;;;;2.50;0.70;;;;;;;;;;5017956;28;20452;-68
2021/04/13 09:32:30;;;;;;;0.80;0.63;;;;;;;;;;5016908;28;20457;-69
2021/04/13 09:35:02;;;;;;;1.10;1.00;;;;;;;;;;5015664;28;20423;-68
2021/04/13 09:37:47;;;;;;;2.50;1.27;;;;;;;;;;5017055;28;20607;-70
2021/04/13 09:40:16;;;;;;;9.20;1.07;;;;;;;;;;5009963;28;20468;-69
2021/04/13 09:42:51;;;;;;;0.80;0.70;;;;;;;;;;5014801;28;20419;-68
2021/04/13 09:45:26;;;;;;;1.33;0.70;;;;;;;;;;5015817;28;20401;-68
2021/04/13 09:48:12;;;;;;;12.93;1.03;;;;;;;;;;5014602;28;20401;-68
2021/04/13 09:50:38;;;;;;;1.63;0.63;;;;;;;;;;4981722;28;20459;-68
2021/04/13 09:53:12;;;;;;;1.83;0.80;;;;;;;;;;5015905;28;20986;-69
2021/04/13 09:55:45;;;;;;;1.00;0.70;;;;;;;;;;5013708;28;20416;-69
2021/04/13 09:58:11;;;;;;;3.70;1.07;;;;;;;;;;5014366;28;20387;-67
2021/04/13 10:00:37;;;;;;;1.07;0.50;;;;;;;;;;5012984;28;20993;-67
2021/04/13 10:03:12;;;;;;;1.00;0.70;;;;;;;;;;5015632;28;20520;-68
2021/04/13 10:05:40;;;;;;;0.70;0.40;;;;;;;;;;5027623;28;20407;-69
2021/04/13 10:08:10;;;;;;;1.30;1.10;;;;;;;;;;5032418;28;20938;-69
2021/04/13 10:10:43;;;;;;;1.73;0.83;;;;;;;;;;5013603;28;20433;-68
2021/04/13 10:13:22;;;;;;;0.90;0.87;;;;;;;;;;5014761;28;20487;-67
2021/04/13 10:15:53;;;;;;;0.80;0.60;;;;;;;;;;5016319;28;20404;-68
2021/04/13 10:18:25;;;;;;;1.13;0.80;;;;;;;;;;5016909;28;20462;-69
2021/04/13 10:20:51;;;;;;;2.03;1.27;;;;;;;;;;5015466;28;20521;-69
2021/04/13 10:23:24;;;;;;;0.80;0.60;;;;;;;;;;5013893;28;20420;-68
2021/04/13 10:25:50;;;;;;;0.80;0.53;;;;;;;;;;5011930;28;20376;-68
2021/04/13 10:28:28;;;;;;;2.60;1.10;;;;;;;;;;5014346;28;20391;-69
2021/04/13 10:31:05;;;;;;;1.07;0.97;;;;;;;;;;5013686;28;20481;-68
2021/04/13 10:33:49;;;;;;;0.70;0.47;;;;;;;;;;4997557;28;20417;-68
2021/04/13 10:36:34;;;;;;;1.07;0.97;;;;;;;;;;5013881;28;20471;-69
2021/04/13 10:39:18;;;;;;;0.70;0.50;;;;;;;;;;5002427;28;20412;-71
2021/04/13 10:42:02;;;;;;;0.70;0.50;;;;;;;;;;5001888;28;20818;-68
2021/04/13 10:44:46;;;;;;;0.90;0.60;;;;;;;;;;5007117;28;20394;-70
2021/04/13 10:47:33;;;;;;;0.80;0.60;;;;;;;;;;5012172;28;20383;-68
2021/04/13 10:50:05;;;;;;;0.70;0.50;;;;;;;;;;5009060;28;20795;-68
2021/04/13 10:52:39;;;;;;;1.27;1.00;;;;;;;;;;5009350;28;20594;-66
2021/04/13 10:55:08;;;;;;;4.90;3.53;;;;;;;;;;5012253;28;20480;-69
2021/04/13 10:57:37;;;;;;;6.53;0.60;;;;;;;;;;5008084;28;20382;-69
2021/04/13 11:00:05;;;;;;;0.70;0.50;;;;;;;;;;5005079;28;20448;-69
2021/04/13 11:02:46;;;;;;;5.30;0.63;;;;;;;;;;5005644;28;20455;-70
2021/04/13 11:05:24;;;;;;;0.70;0.40;;;;;;;;;;5015405;28;20420;-69
2021/04/13 11:08:09;;;;;;;0.80;0.63;;;;;;;;;;5005942;28;20420;-67
2021/04/13 11:10:45;;;;;;;1.27;1.00;;;;;;;;;;5003381;28;20434;-68
2021/04/13 11:13:29;;;;;;;1.97;0.90;;;;;;;;;;5005583;28;20515;-69
2021/04/13 11:16:23;;;;;;;2.83;1.17;;;;;;;;;;5006839;28;20407;-66
2021/04/13 11:19:17;;;;;;;1.10;0.60;;;;;;;;;;5007876;28;20428;-68
2021/04/13 11:21:47;;;;;;;1.00;0.63;;;;;;;;;;5010803;28;21049;-68
2021/04/13 11:24:12;;;;;;;1.30;1.07;;;;;;;;;;5017370;28;20419;-69
2021/04/13 11:26:41;;;;;;;0.70;0.50;;;;;;;;;;5017900;28;20849;-69
2021/04/13 11:29:26;;;;;;;0.70;0.40;;;;;;;;;;5016721;28;20383;-70
2021/04/13 11:31:55;;;;;;;0.90;0.63;;;;;;;;;;5012801;28;20418;-69
2021/04/13 11:34:35;;;;;;;0.90;0.60;;;;;;;;;;5012168;28;20420;-65
2021/04/13 11:37:30;;;;;;;1.03;0.90;;;;;;;;;;5012883;28;20444;-70
2021/04/13 11:40:14;;;;;;;0.70;0.53;;;;;;;;;;4959328;28;20444;-68
2021/04/13 11:42:43;;;;;;;0.90;0.80;;;;;;;;;;5012220;28;20895;-72
2021/04/13 11:45:15;;;;;;;0.70;0.40;;;;;;;;;;5014508;28;20428;-69
2021/04/13 11:47:47;;;;;;;0.90;0.50;;;;;;;;;;5008985;28;20417;-68
2021/04/13 11:50:29;;;;;;;0.90;0.63;;;;;;;;;;5014509;28;20363;-67
2021/04/13 11:53:00;;;;;;;2.70;0.83;;;;;;;;;;5014205;28;20421;-69
2021/04/13 11:55:30;;;;;;;0.70;0.40;;;;;;;;;;5015441;28;20433;-68
2021/04/13 11:58:10;;;;;;;1.67;0.90;;;;;;;;;;5008925;28;20409;-69
2021/04/13 12:00:36;;;;;;;1.37;0.60;;;;;;;;;;5013905;28;20521;-68
2021/04/13 12:03:17;;;;;;;0.80;0.60;;;;;;;;;;5009404;28;20766;-69
2021/04/13 12:05:45;;;;;;;1.23;0.50;;;;;;;;;;5013947;28;20417;-67
2021/04/13 12:08:23;;;;;;;0.70;0.50;;;;;;;;;;5011470;28;20410;-68
2021/04/13 12:10:50;;;;;;;0.80;0.50;;;;;;;;;;5013792;28;20456;-69
2021/04/13 12:13:34;;;;;;;0.70;0.50;;;;;;;;;;5014291;28;20413;-69
2021/04/13 12:16:00;;;;;;;1.07;0.70;;;;;;;;;;5013111;28;20437;-68
2021/04/13 12:18:35;;;;;;;1.30;0.80;;;;;;;;;;5009893;28;20418;-70
2021/04/13 12:21:20;;;;;;;0.80;0.50;;;;;;;;;;5010648;28;20463;-69
2021/04/13 12:23:48;;;;;;;0.73;0.40;;;;;;;;;;5011813;28;20405;-69
2021/04/13 12:26:28;;;;;;;2.23;0.93;;;;;;;;;;5014039;28;20451;-70
2021/04/13 12:28:54;;;;;;;0.80;0.70;;;;;;;;;;5008425;28;20396;-68
2021/04/13 12:31:24;;;;;;;3.40;1.00;;;;;;;;;;5009916;28;20817;-69
2021/04/13 12:33:55;;;;;;;0.80;0.57;;;;;;;;;;5011023;28;20389;-69
2021/04/13 12:36:39;;;;;;;0.70;0.50;;;;;;;;;;5004460;28;20420;-69
2021/04/13 12:39:05;;;;;;;1.00;0.67;;;;;;;;;;5003641;28;20453;-69
2021/04/13 12:41:34;;;;;;;1.20;1.00;;;;;;;;;;5012368;28;20466;-71
2021/04/13 12:44:02;;;;;;;1.17;1.07;;;;;;;;;;5001123;28;20417;-70
2021/04/13 12:46:36;;;;;;;0.80;0.50;;;;;;;;;;5011938;28;20758;-69
2021/04/13 12:49:04;;;;;;;0.70;0.50;;;;;;;;;;5011940;28;20409;-68
2021/04/13 12:51:31;;;;;;;2.30;0.77;;;;;;;;;;5010728;28;20487;-69
2021/04/13 12:54:16;;;;;;;0.70;0.50;;;;;;;;;;5009045;28;20419;-70
2021/04/13 12:56:48;;;;;;;0.70;0.50;;;;;;;;;;5011440;28;20968;-69
2021/04/13 12:59:15;;;;;;;1.53;0.70;;;;;;;;;;5013835;28;20835;-69
2021/04/13 13:01:44;;;;;;;0.70;0.50;;;;;;;;;;5008446;28;20979;-70
2021/04/13 13:04:11;;;;;;;0.80;0.60;;;;;;;;;;5013423;28;20435;-69
2021/04/13 13:06:40;;;;;;;0.80;0.60;;;;;;;;;;5032144;28;20830;-71
2021/04/13 13:09:17;;;;;;;0.80;0.60;;;;;;;;;;5015757;28;20515;-70
2021/04/13 13:11:43;;;;;;;1.00;0.70;;;;;;;;;;5012645;28;20403;-69
2021/04/13 13:14:11;;;;;;;0.70;0.50;;;;;;;;;;5012364;28;20391;-69
2021/04/13 13:16:37;;;;;;;0.97;0.60;;;;;;;;;;5012918;28;20916;-69
2021/04/13 13:19:03;;;;;;;0.80;0.50;;;;;;;;;;5012756;28;20428;-69
2021/04/13 13:21:30;;;;;;;0.80;0.60;;;;;;;;;;5008194;28;20864;-68
2021/04/13 13:23:57;;;;;;;1.20;0.80;;;;;;;;;;5007797;28;20396;-67
2021/04/13 13:26:30;;;;;;;1.17;0.73;;;;;;;;;;5009765;28;20732;-69
2021/04/13 13:28:55;;;;;;;3.90;2.30;;;;;;;;;;5013812;28;20413;-69
2021/04/13 13:31:30;;;;;;;0.80;0.60;;;;;;;;;;5012704;28;20446;-70
2021/04/13 13:34:00;;;;;;;0.77;0.47;;;;;;;;;;5014282;28;20305;-71
2021/04/13 13:36:29;;;;;;;0.90;0.70;;;;;;;;;;5006499;28;20409;-69
2021/04/13 13:38:56;;;;;;;2.63;0.90;;;;;;;;;;5000821;28;20380;-70
2021/04/13 13:41:23;;;;;;;0.80;0.60;;;;;;;;;;5003521;28;20448;-67
2021/04/13 13:43:50;;;;;;;3.83;0.70;;;;;;;;;;5001735;28;20604;-70
2021/04/13 13:46:31;;;;;;;2.70;0.70;;;;;;;;;;5001816;28;20430;-69
2021/04/13 13:49:14;;;;;;;1.00;0.60;;;;;;;;;;5005678;28;20395;-71
2021/04/13 13:51:40;;;;;;;1.70;0.90;;;;;;;;;;5006176;28;20506;-72
2021/04/13 13:54:11;;;;;;;0.80;0.70;;;;;;;;;;5004155;28;20441;-70
2021/04/13 13:56:38;;;;;;;3.13;0.70;;;;;;;;;;5001395;28;20471;-71
2021/04/13 13:59:27;;;;;;;1.07;0.57;;;;;;;;;;5009517;28;20512;-70
2021/04/13 14:01:58;;;;;;;0.90;0.63;;;;;;;;;;5004772;28;20742;-68
2021/04/13 14:04:28;;;;;;;1.93;0.50;;;;;;;;;;5026650;28;20987;-69
2021/04/13 14:06:54;;;;;;;1.00;0.70;;;;;;;;;;5013200;28;20414;-70
2021/04/13 14:09:20;;;;;;;1.00;0.60;;;;;;;;;;5011388;28;20931;-63
2021/04/13 14:11:46;;;;;;;0.80;0.50;;;;;;;;;;5007402;28;20406;-67
2021/04/13 14:14:14;;;;;;;0.70;0.40;;;;;;;;;;5000752;28;20408;-66
2021/04/13 14:16:46;;;;;;;0.80;0.60;;;;;;;;;;5002696;28;20439;-68
2021/04/13 14:19:28;;;;;;;1.27;1.17;;;;;;;;;;5003104;28;20394;-66
2021/04/13 14:21:55;;;;;;;1.00;0.60;;;;;;;;;;5010606;28;21042;-69
2021/04/13 14:24:25;;;;;;;1.00;0.60;;;;;;;;;;5013218;28;20388;-68
2021/04/13 14:27:03;;;;;;;0.73;0.47;;;;;;;;;;5009294;28;20619;-69
2021/04/13 14:29:29;;;;;;;0.70;0.50;;;;;;;;;;5012097;28;20401;-68
2021/04/13 14:31:57;;;;;;;1.23;0.80;;;;;;;;;;5011122;28;20440;-70
2021/04/13 14:34:23;;;;;;;0.70;0.50;;;;;;;;;;5003825;28;20421;-69
2021/04/13 14:37:03;;;;;;;0.70;0.50;;;;;;;;;;5003674;28;20507;-69
2021/04/13 14:39:29;;;;;;;0.70;0.50;;;;;;;;;;5012748;28;20860;-69
2021/04/13 14:41:55;;;;;;;2.13;1.53;;;;;;;;;;5011540;28;20881;-67
2021/04/13 14:44:21;;;;;;;0.70;0.50;;;;;;;;;;5008858;28;20483;-67
2021/04/13 14:46:47;;;;;;;0.80;0.50;;;;;;;;;;5007866;28;20416;-70
2021/04/13 14:49:13;;;;;;;0.80;0.50;;;;;;;;;;5007594;28;20429;-67
2021/04/13 14:51:39;;;;;;;1.00;0.60;;;;;;;;;;5009559;28;20558;-69
2021/04/13 14:54:06;;;;;;;0.80;0.50;;;;;;;;;;5005882;28;20963;-70
2021/04/13 14:56:33;;;;;;;0.70;0.40;;;;;;;;;;5008048;28;20831;-70
2021/04/13 14:58:59;;;;;;;1.10;1.00;;;;;;;;;;5002442;28;20508;-69
2021/04/13 15:01:25;;;;;;;0.70;0.50;;;;;;;;;;5019784;23;20564;-70
2021/04/13 15:03:51;;;;;;;0.70;0.60;;;;;;;;;;5006427;28;20523;-70
2021/04/13 15:06:17;;;;;;;0.70;0.40;;;;;;;;;;5010087;28;20424;-70
2021/04/13 15:08:43;;;;;;;1.87;0.63;;;;;;;;;;5025126;28;20841;-70
2021/04/13 15:11:09;;;;;;;3.13;2.83;;;;;;;;;;5009569;28;20431;-71
2021/04/13 15:13:34;;;;;;;0.80;0.50;;;;;;;;;;5010220;28;20400;-71